sensor_id;sensor_type;location;lat;lon;timestamp;pressure;altitude;pressure_sealevel;temperature;humidity
56912;BME280;42800;53.928;27.662;2023-04-27T00:01:55;98896.63;;;4.68;100.00
56912;BME280;42800;53.928;27.662;2023-04-27T00:04:21;98883.50;;;4.91;100.00
56912;BME280;42800;53.928;27.662;2023-04-27T00:06:47;98872.94;;;4.77;100.00
56912;BME280;42800;53.928;27.662;2023-04-27T00:09:13;98855.44;;;4.87;100.00
56912;BME280;42800;53.928;27.662;2023-04-27T00:11:40;98864.69;;;4.86;100.00
56912;BME280;42800;53.928;27.662;2023-04-27T00:14:06;98856.63;;;4.77;100.00
56912;BME280;42800;53.928;27.662;2023-04-27T00:16:32;98873.88;;;4.60;100.00
56912;BME280;42800;53.928;27.662;2023-04-27T00:18:58;98883.72;;;4.65;100.00
56912;BME280;42800;53.928;27.662;2023-04-27T00:21:25;98882.00;;;4.60;100.00
56912;BME280;42800;53.928;27.662;2023-04-27T00:23:53;98865.25;;;4.37;100.00
56912;BME280;42800;53.928;27.662;2023-04-27T00:26:19;98858.84;;;4.42;100.00
56912;BME280;42800;53.928;27.662;2023-04-27T00:28:46;98870.22;;;4.56;100.00
56912;BME280;42800;53.928;27.662;2023-04-27T00:31:12;98867.50;;;4.56;100.00
56912;BME280;42800;53.928;27.662;2023-04-27T00:33:39;98870.47;;;4.84;100.00
56912;BME280;42800;53.928;27.662;2023-04-27T00:36:05;98890.06;;;4.90;100.00
56912;BME280;42800;53.928;27.662;2023-04-27T00:38:32;98896.81;;;4.63;100.00
56912;BME280;42800;53.928;27.662;2023-04-27T00:41:01;98897.16;;;4.61;100.00
56912;BME280;42800;53.928;27.662;2023-04-27T00:43:27;98912.97;;;4.59;100.00
56912;BME280;42800;53.928;27.662;2023-04-27T00:45:53;98918.63;;;4.54;100.00
56912;BME280;42800;53.928;27.662;2023-04-27T00:48:19;98915.16;;;4.45;100.00
56912;BME280;42800;53.928;27.662;2023-04-27T00:50:46;98912.28;;;4.50;100.00
56912;BME280;42800;53.928;27.662;2023-04-27T00:53:13;98919.28;;;4.51;100.00
56912;BME280;42800;53.928;27.662;2023-04-27T00:55:39;98901.56;;;4.54;100.00
56912;BME280;42800;53.928;27.662;2023-04-27T00:58:05;98908.34;;;4.60;100.00
56912;BME280;42800;53.928;27.662;2023-04-27T01:00:31;98915.31;;;4.48;100.00
56912;BME280;42800;53.928;27.662;2023-04-27T01:02:57;98921.69;;;4.23;100.00
56912;BME280;42800;53.928;27.662;2023-04-27T01:05:24;98928.34;;;4.55;100.00
56912;BME280;42800;53.928;27.662;2023-04-27T01:07:51;98930.97;;;4.43;100.00
56912;BME280;42800;53.928;27.662;2023-04-27T01:10:17;98925.84;;;4.50;100.00
56912;BME280;42800;53.928;27.662;2023-04-27T01:12:43;98941.78;;;4.31;100.00
56912;BME280;42800;53.928;27.662;2023-04-27T01:15:10;98939.34;;;4.38;100.00
56912;BME280;42800;53.928;27.662;2023-04-27T01:17:36;98929.28;;;4.59;100.00
56912;BME280;42800;53.928;27.662;2023-04-27T01:20:02;98921.88;;;4.47;100.00
56912;BME280;42800;53.928;27.662;2023-04-27T01:22:31;98915.91;;;4.54;100.00
56912;BME280;42800;53.928;27.662;2023-04-27T01:24:58;98913.72;;;4.68;100.00
56912;BME280;42800;53.928;27.662;2023-04-27T01:27:24;98917.63;;;4.59;100.00
56912;BME280;42800;53.928;27.662;2023-04-27T01:29:50;98910.78;;;4.53;100.00
56912;BME280;42800;53.928;27.662;2023-04-27T01:32:16;98921.53;;;4.49;100.00
56912;BME280;42800;53.928;27.662;2023-04-27T01:34:42;98925.78;;;4.59;100.00
56912;BME280;42800;53.928;27.662;2023-04-27T01:37:08;98939.81;;;4.82;100.00
56912;BME280;42800;53.928;27.662;2023-04-27T01:39:34;98952.88;;;4.88;100.00
56912;BME280;42800;53.928;27.662;2023-04-27T01:42:01;98948.63;;;4.79;100.00
56912;BME280;42800;53.928;27.662;2023-04-27T01:44:28;98944.78;;;4.80;100.00
56912;BME280;42800;53.928;27.662;2023-04-27T01:46:54;98952.06;;;4.88;100.00
56912;BME280;42800;53.928;27.662;2023-04-27T01:49:20;98947.03;;;4.78;100.00
56912;BME280;42800;53.928;27.662;2023-04-27T01:51:45;98958.16;;;4.85;100.00
56912;BME280;42800;53.928;27.662;2023-04-27T01:54:11;98950.81;;;4.85;100.00
56912;BME280;42800;53.928;27.662;2023-04-27T01:56:37;98954.44;;;4.68;100.00
56912;BME280;42800;53.928;27.662;2023-04-27T01:59:04;98958.88;;;4.73;100.00
56912;BME280;42800;53.928;27.662;2023-04-27T02:01:30;98953.06;;;4.83;100.00
56912;BME280;42800;53.928;27.662;2023-04-27T02:03:56;98958.69;;;4.78;100.00
56912;BME280;42800;53.928;27.662;2023-04-27T02:06:22;98953.97;;;4.66;100.00
56912;BME280;42800;53.928;27.662;2023-04-27T02:08:47;98957.81;;;4.86;100.00
56912;BME280;42800;53.928;27.662;2023-04-27T02:11:13;98957.56;;;4.79;100.00
56912;BME280;42800;53.928;27.662;2023-04-27T02:13:39;98960.22;;;4.67;100.00
56912;BME280;42800;53.928;27.662;2023-04-27T02:16:06;98954.41;;;4.77;100.00
56912;BME280;42800;53.928;27.662;2023-04-27T02:18:32;98949.22;;;4.84;100.00
56912;BME280;42800;53.928;27.662;2023-04-27T02:21:00;98943.13;;;4.87;100.00
56912;BME280;42800;53.928;27.662;2023-04-27T02:23:26;98949.19;;;5.05;100.00
56912;BME280;42800;53.928;27.662;2023-04-27T02:25:52;98954.03;;;5.21;100.00
56912;BME280;42800;53.928;27.662;2023-04-27T02:28:18;98963.28;;;5.19;100.00
56912;BME280;42800;53.928;27.662;2023-04-27T02:30:44;98959.69;;;4.94;100.00
56912;BME280;42800;53.928;27.662;2023-04-27T02:33:10;98949.75;;;4.99;100.00
56912;BME280;42800;53.928;27.662;2023-04-27T02:35:36;98960.88;;;5.06;100.00
56912;BME280;42800;53.928;27.662;2023-04-27T02:38:02;98960.56;;;5.19;100.00
56912;BME280;42800;53.928;27.662;2023-04-27T02:40:28;98964.81;;;5.29;100.00
56912;BME280;42800;53.928;27.662;2023-04-27T02:42:54;98972.66;;;5.31;100.00
56912;BME280;42800;53.928;27.662;2023-04-27T02:45:20;98979.28;;;5.21;100.00
56912;BME280;42800;53.928;27.662;2023-04-27T02:47:45;98977.88;;;5.15;100.00
56912;BME280;42800;53.928;27.662;2023-04-27T02:50:12;98980.06;;;4.80;100.00
56912;BME280;42800;53.928;27.662;2023-04-27T02:52:38;98966.16;;;5.02;100.00
56912;BME280;42800;53.928;27.662;2023-04-27T02:55:05;98962.59;;;5.10;100.00
56912;BME280;42800;53.928;27.662;2023-04-27T02:57:31;98978.25;;;5.13;100.00
56912;BME280;42800;53.928;27.662;2023-04-27T02:59:57;98977.53;;;4.83;100.00
56912;BME280;42800;53.928;27.662;2023-04-27T03:02:23;98963.38;;;5.11;100.00
56912;BME280;42800;53.928;27.662;2023-04-27T03:04:51;98973.50;;;5.23;100.00
56912;BME280;42800;53.928;27.662;2023-04-27T03:07:18;98977.03;;;5.23;100.00
56912;BME280;42800;53.928;27.662;2023-04-27T03:09:44;98978.22;;;4.92;100.00
56912;BME280;42800;53.928;27.662;2023-04-27T03:12:10;98982.44;;;4.90;100.00
56912;BME280;42800;53.928;27.662;2023-04-27T03:14:36;98984.91;;;5.16;100.00
56912;BME280;42800;53.928;27.662;2023-04-27T03:17:02;98980.97;;;5.13;100.00
56912;BME280;42800;53.928;27.662;2023-04-27T03:19:28;98990.41;;;4.86;100.00
56912;BME280;42800;53.928;27.662;2023-04-27T03:21:54;98969.28;;;4.92;100.00
56912;BME280;42800;53.928;27.662;2023-04-27T03:24:21;98968.25;;;4.84;100.00
56912;BME280;42800;53.928;27.662;2023-04-27T03:26:49;98972.22;;;4.87;100.00
56912;BME280;42800;53.928;27.662;2023-04-27T03:29:15;98987.78;;;4.78;100.00
56912;BME280;42800;53.928;27.662;2023-04-27T03:31:41;98981.81;;;5.05;100.00
56912;BME280;42800;53.928;27.662;2023-04-27T03:34:07;98995.19;;;4.89;100.00
56912;BME280;42800;53.928;27.662;2023-04-27T03:36:33;98998.56;;;4.86;100.00
56912;BME280;42800;53.928;27.662;2023-04-27T03:38:59;99005.34;;;5.01;100.00
56912;BME280;42800;53.928;27.662;2023-04-27T03:41:26;99009.50;;;4.99;100.00
56912;BME280;42800;53.928;27.662;2023-04-27T03:43:52;99012.56;;;4.97;100.00
56912;BME280;42800;53.928;27.662;2023-04-27T03:46:18;99013.88;;;5.12;100.00
56912;BME280;42800;53.928;27.662;2023-04-27T03:48:44;99021.28;;;4.82;100.00
56912;BME280;42800;53.928;27.662;2023-04-27T03:51:11;99024.66;;;4.79;100.00
56912;BME280;42800;53.928;27.662;2023-04-27T03:53:37;99022.66;;;4.97;100.00
56912;BME280;42800;53.928;27.662;2023-04-27T03:56:04;99022.31;;;4.98;100.00
56912;BME280;42800;53.928;27.662;2023-04-27T03:58:30;99035.97;;;5.10;100.00
56912;BME280;42800;53.928;27.662;2023-04-27T04:00:56;99042.78;;;5.16;100.00
56912;BME280;42800;53.928;27.662;2023-04-27T04:03:23;99060.81;;;5.00;100.00
56912;BME280;42800;53.928;27.662;2023-04-27T04:05:48;99063.72;;;5.16;100.00
56912;BME280;42800;53.928;27.662;2023-04-27T04:08:14;99070.03;;;5.08;100.00
56912;BME280;42800;53.928;27.662;2023-04-27T04:10:40;99074.47;;;5.12;100.00
56912;BME280;42800;53.928;27.662;2023-04-27T04:13:06;99077.50;;;5.11;100.00
56912;BME280;42800;53.928;27.662;2023-04-27T04:15:33;99083.44;;;5.34;100.00
56912;BME280;42800;53.928;27.662;2023-04-27T04:17:59;99087.66;;;5.43;100.00
56912;BME280;42800;53.928;27.662;2023-04-27T04:20:25;99091.16;;;5.02;100.00
56912;BME280;42800;53.928;27.662;2023-04-27T04:22:51;99091.16;;;5.02;100.00
56912;BME280;42800;53.928;27.662;2023-04-27T04:25:17;99081.09;;;5.24;100.00
56912;BME280;42800;53.928;27.662;2023-04-27T04:27:45;99082.44;;;5.17;100.00
56912;BME280;42800;53.928;27.662;2023-04-27T04:30:12;99077.25;;;5.04;100.00
56912;BME280;42800;53.928;27.662;2023-04-27T04:35:44;99080.50;;;4.97;100.00
56912;BME280;42800;53.928;27.662;2023-04-27T04:38:11;99077.03;;;5.30;100.00
56912;BME280;42800;53.928;27.662;2023-04-27T04:40:37;99084.53;;;5.12;100.00
56912;BME280;42800;53.928;27.662;2023-04-27T04:43:03;99088.13;;;5.25;100.00
56912;BME280;42800;53.928;27.662;2023-04-27T04:45:29;99094.22;;;5.22;100.00
56912;BME280;42800;53.928;27.662;2023-04-27T04:47:55;99090.31;;;5.31;100.00
56912;BME280;42800;53.928;27.662;2023-04-27T04:50:21;99092.91;;;5.28;100.00
56912;BME280;42800;53.928;27.662;2023-04-27T04:52:48;99097.41;;;5.24;100.00
56912;BME280;42800;53.928;27.662;2023-04-27T04:55:14;99108.03;;;5.37;100.00
56912;BME280;42800;53.928;27.662;2023-04-27T04:57:40;99097.81;;;5.13;100.00
56912;BME280;42800;53.928;27.662;2023-04-27T05:00:07;99102.25;;;5.39;100.00
56912;BME280;42800;53.928;27.662;2023-04-27T05:02:36;99104.84;;;5.35;100.00
56912;BME280;42800;53.928;27.662;2023-04-27T05:05:02;99108.00;;;5.58;100.00
56912;BME280;42800;53.928;27.662;2023-04-27T05:07:29;99101.03;;;5.49;100.00
56912;BME280;42800;53.928;27.662;2023-04-27T05:09:55;99092.09;;;5.27;100.00
56912;BME280;42800;53.928;27.662;2023-04-27T05:12:21;99091.84;;;5.41;100.00
56912;BME280;42800;53.928;27.662;2023-04-27T05:14:47;99085.81;;;5.35;100.00
56912;BME280;42800;53.928;27.662;2023-04-27T05:17:13;99081.09;;;5.45;100.00
56912;BME280;42800;53.928;27.662;2023-04-27T05:19:39;99081.63;;;5.38;100.00
56912;BME280;42800;53.928;27.662;2023-04-27T05:22:05;99093.63;;;5.37;100.00
56912;BME280;42800;53.928;27.662;2023-04-27T05:24:32;99070.19;;;5.03;100.00
56912;BME280;42800;53.928;27.662;2023-04-27T05:26:58;99094.13;;;5.09;100.00
56912;BME280;42800;53.928;27.662;2023-04-27T05:29:24;99095.81;;;5.23;100.00
56912;BME280;42800;53.928;27.662;2023-04-27T05:31:51;99107.16;;;5.25;100.00
56912;BME280;42800;53.928;27.662;2023-04-27T05:34:18;99100.31;;;5.39;100.00
56912;BME280;42800;53.928;27.662;2023-04-27T05:36:44;99106.69;;;5.43;100.00
56912;BME280;42800;53.928;27.662;2023-04-27T05:39:11;99106.50;;;5.28;100.00
56912;BME280;42800;53.928;27.662;2023-04-27T05:41:37;99107.63;;;5.48;100.00
56912;BME280;42800;53.928;27.662;2023-04-27T05:44:04;99107.28;;;5.49;100.00
56912;BME280;42800;53.928;27.662;2023-04-27T05:46:30;99099.88;;;5.92;100.00
56912;BME280;42800;53.928;27.662;2023-04-27T05:48:56;99093.31;;;5.93;100.00
56912;BME280;42800;53.928;27.662;2023-04-27T05:51:23;99073.00;;;5.90;100.00
56912;BME280;42800;53.928;27.662;2023-04-27T05:53:49;99051.94;;;5.99;100.00
56912;BME280;42800;53.928;27.662;2023-04-27T05:56:15;99024.59;;;5.83;100.00
56912;BME280;42800;53.928;27.662;2023-04-27T05:58:41;99014.78;;;6.03;100.00
56912;BME280;42800;53.928;27.662;2023-04-27T06:01:08;98969.66;;;6.02;100.00
56912;BME280;42800;53.928;27.662;2023-04-27T06:03:34;98926.09;;;6.02;100.00
56912;BME280;42800;53.928;27.662;2023-04-27T06:06:00;98903.06;;;5.87;100.00
56912;BME280;42800;53.928;27.662;2023-04-27T06:08:26;98902.28;;;6.11;100.00
56912;BME280;42800;53.928;27.662;2023-04-27T06:10:52;98830.19;;;6.05;100.00
56912;BME280;42800;53.928;27.662;2023-04-27T06:13:18;98793.00;;;5.85;100.00
56912;BME280;42800;53.928;27.662;2023-04-27T06:15:45;98840.78;;;6.35;100.00
56912;BME280;42800;53.928;27.662;2023-04-27T06:18:11;98806.44;;;6.30;100.00
56912;BME280;42800;53.928;27.662;2023-04-27T06:20:37;98835.59;;;6.30;100.00
56912;BME280;42800;53.928;27.662;2023-04-27T06:23:04;98794.47;;;6.47;100.00
56912;BME280;42800;53.928;27.662;2023-04-27T06:25:30;98745.28;;;6.56;100.00
56912;BME280;42800;53.928;27.662;2023-04-27T06:27:56;98669.84;;;6.56;100.00
56912;BME280;42800;53.928;27.662;2023-04-27T06:30:22;98683.09;;;6.74;100.00
56912;BME280;42800;53.928;27.662;2023-04-27T06:32:50;98639.06;;;7.03;100.00
56912;BME280;42800;53.928;27.662;2023-04-27T06:35:17;98561.63;;;6.73;100.00
56912;BME280;42800;53.928;27.662;2023-04-27T06:37:43;98544.63;;;6.60;100.00
56912;BME280;42800;53.928;27.662;2023-04-27T06:40:09;98520.38;;;6.55;100.00
56912;BME280;42800;53.928;27.662;2023-04-27T06:42:36;98509.81;;;6.69;100.00
56912;BME280;42800;53.928;27.662;2023-04-27T06:45:02;98416.78;;;6.32;100.00
56912;BME280;42800;53.928;27.662;2023-04-27T06:47:29;98519.28;;;6.40;100.00
56912;BME280;42800;53.928;27.662;2023-04-27T06:49:55;98567.13;;;6.57;100.00
56912;BME280;42800;53.928;27.662;2023-04-27T06:52:21;98599.44;;;6.43;100.00
56912;BME280;42800;53.928;27.662;2023-04-27T06:54:47;98701.72;;;6.72;100.00
56912;BME280;42800;53.928;27.662;2023-04-27T06:57:13;98681.31;;;6.66;100.00
56912;BME280;42800;53.928;27.662;2023-04-27T06:59:39;98678.97;;;6.96;100.00
56912;BME280;42800;53.928;27.662;2023-04-27T07:02:06;98625.66;;;6.63;100.00
56912;BME280;42800;53.928;27.662;2023-04-27T07:04:32;98617.69;;;6.90;100.00
56912;BME280;42800;53.928;27.662;2023-04-27T07:06:58;98565.28;;;6.96;100.00
56912;BME280;42800;53.928;27.662;2023-04-27T07:09:25;98611.97;;;6.95;100.00
56912;BME280;42800;53.928;27.662;2023-04-27T07:11:51;98601.47;;;7.13;100.00
56912;BME280;42800;53.928;27.662;2023-04-27T07:14:17;98540.00;;;7.15;100.00
56912;BME280;42800;53.928;27.662;2023-04-27T07:16:43;98521.38;;;7.17;100.00
56912;BME280;42800;53.928;27.662;2023-04-27T07:19:09;98386.81;;;6.87;100.00
56912;BME280;42800;53.928;27.662;2023-04-27T07:21:35;98330.69;;;6.82;100.00
56912;BME280;42800;53.928;27.662;2023-04-27T07:24:01;98278.75;;;6.94;100.00
56912;BME280;42800;53.928;27.662;2023-04-27T07:26:29;98247.22;;;6.93;100.00
56912;BME280;42800;53.928;27.662;2023-04-27T07:28:56;98205.91;;;6.68;100.00
56912;BME280;42800;53.928;27.662;2023-04-27T07:31:22;98222.09;;;6.80;100.00
56912;BME280;42800;53.928;27.662;2023-04-27T07:33:48;98252.84;;;7.04;100.00
56912;BME280;42800;53.928;27.662;2023-04-27T07:36:14;98328.78;;;7.05;100.00
56912;BME280;42800;53.928;27.662;2023-04-27T07:38:40;98263.31;;;7.02;100.00
56912;BME280;42800;53.928;27.662;2023-04-27T07:41:06;98230.06;;;6.93;100.00
56912;BME280;42800;53.928;27.662;2023-04-27T07:43:34;98214.03;;;7.37;100.00
56912;BME280;42800;53.928;27.662;2023-04-27T07:46:00;98156.41;;;7.39;100.00
56912;BME280;42800;53.928;27.662;2023-04-27T07:48:26;98134.00;;;7.52;100.00
56912;BME280;42800;53.928;27.662;2023-04-27T07:50:53;98100.53;;;7.55;100.00
56912;BME280;42800;53.928;27.662;2023-04-27T07:53:19;98050.44;;;7.37;100.00
56912;BME280;42800;53.928;27.662;2023-04-27T07:55:45;98023.03;;;7.57;100.00
56912;BME280;42800;53.928;27.662;2023-04-27T07:58:11;97997.19;;;7.84;100.00
56912;BME280;42800;53.928;27.662;2023-04-27T08:00:38;98005.44;;;7.91;100.00
56912;BME280;42800;53.928;27.662;2023-04-27T08:03:04;97938.13;;;8.06;100.00
56912;BME280;42800;53.928;27.662;2023-04-27T08:05:30;97992.84;;;8.20;100.00
56912;BME280;42800;53.928;27.662;2023-04-27T08:07:56;97961.06;;;8.46;100.00
56912;BME280;42800;53.928;27.662;2023-04-27T08:10:22;97939.69;;;8.59;100.00
56912;BME280;42800;53.928;27.662;2023-04-27T08:12:48;97853.13;;;8.74;100.00
56912;BME280;42800;53.928;27.662;2023-04-27T08:15:14;97796.91;;;8.69;100.00
56912;BME280;42800;53.928;27.662;2023-04-27T08:17:41;97791.75;;;8.49;100.00
56912;BME280;42800;53.928;27.662;2023-04-27T08:20:09;97807.34;;;8.45;100.00
56912;BME280;42800;53.928;27.662;2023-04-27T08:22:36;97803.19;;;8.84;100.00
56912;BME280;42800;53.928;27.662;2023-04-27T08:25:02;97796.19;;;8.86;100.00
56912;BME280;42800;53.928;27.662;2023-04-27T08:27:28;97807.88;;;8.80;100.00
56912;BME280;42800;53.928;27.662;2023-04-27T08:29:55;97799.66;;;8.76;100.00
56912;BME280;42800;53.928;27.662;2023-04-27T08:32:21;97812.81;;;8.45;100.00
56912;BME280;42800;53.928;27.662;2023-04-27T08:34:47;97818.00;;;8.02;100.00
56912;BME280;42800;53.928;27.662;2023-04-27T08:37:13;97812.63;;;8.10;100.00
56912;BME280;42800;53.928;27.662;2023-04-27T08:39:39;97816.44;;;8.01;100.00
56912;BME280;42800;53.928;27.662;2023-04-27T08:42:11;97835.28;;;8.21;100.00
56912;BME280;42800;53.928;27.662;2023-04-27T08:44:38;97837.44;;;7.90;100.00
56912;BME280;42800;53.928;27.662;2023-04-27T08:47:04;97821.25;;;7.64;100.00
56912;BME280;42800;53.928;27.662;2023-04-27T08:49:30;97820.44;;;8.15;100.00
56912;BME280;42800;53.928;27.662;2023-04-27T08:51:57;97827.06;;;8.17;100.00
56912;BME280;42800;53.928;27.662;2023-04-27T08:54:23;97844.69;;;8.31;100.00
56912;BME280;42800;53.928;27.662;2023-04-27T08:56:49;97843.94;;;8.30;100.00
56912;BME280;42800;53.928;27.662;2023-04-27T08:59:15;97845.28;;;8.68;100.00
56912;BME280;42800;53.928;27.662;2023-04-27T09:01:44;97844.09;;;8.66;100.00
56912;BME280;42800;53.928;27.662;2023-04-27T09:04:12;97857.47;;;8.92;100.00
56912;BME280;42800;53.928;27.662;2023-04-27T09:06:39;97876.69;;;9.14;100.00
56912;BME280;42800;53.928;27.662;2023-04-27T09:09:05;97907.56;;;9.22;100.00
56912;BME280;42800;53.928;27.662;2023-04-27T09:11:33;97917.81;;;9.53;100.00
56912;BME280;42800;53.928;27.662;2023-04-27T09:14:01;97892.03;;;10.04;100.00
56912;BME280;42800;53.928;27.662;2023-04-27T09:16:29;97929.59;;;10.11;100.00
56912;BME280;42800;53.928;27.662;2023-04-27T09:18:56;97979.63;;;10.76;100.00
56912;BME280;42800;53.928;27.662;2023-04-27T09:21:22;98101.00;;;11.34;100.00
56912;BME280;42800;53.928;27.662;2023-04-27T09:23:48;98166.47;;;11.24;100.00
56912;BME280;42800;53.928;27.662;2023-04-27T09:26:19;98052.88;;;10.82;100.00
56912;BME280;42800;53.928;27.662;2023-04-27T09:28:47;98092.75;;;11.23;100.00
56912;BME280;42800;53.928;27.662;2023-04-27T09:31:14;98100.19;;;11.26;100.00
56912;BME280;42800;53.928;27.662;2023-04-27T09:33:42;98115.09;;;11.25;100.00
56912;BME280;42800;53.928;27.662;2023-04-27T09:36:08;98160.59;;;11.12;100.00
56912;BME280;42800;53.928;27.662;2023-04-27T09:38:35;98130.81;;;10.89;100.00
56912;BME280;42800;53.928;27.662;2023-04-27T09:41:01;98119.34;;;10.15;100.00
56912;BME280;42800;53.928;27.662;2023-04-27T09:43:28;98072.63;;;9.69;100.00
56912;BME280;42800;53.928;27.662;2023-04-27T09:45:55;98062.50;;;9.76;100.00
56912;BME280;42800;53.928;27.662;2023-04-27T09:48:23;98059.84;;;10.16;100.00
56912;BME280;42800;53.928;27.662;2023-04-27T09:50:50;98138.81;;;9.92;100.00
56912;BME280;42800;53.928;27.662;2023-04-27T09:53:18;98104.38;;;9.84;100.00
56912;BME280;42800;53.928;27.662;2023-04-27T09:55:49;98124.38;;;9.99;100.00
56912;BME280;42800;53.928;27.662;2023-04-27T09:58:35;98097.75;;;9.92;100.00
56912;BME280;42800;53.928;27.662;2023-04-27T10:01:09;98083.75;;;10.22;100.00
56912;BME280;42800;53.928;27.662;2023-04-27T10:03:44;98010.53;;;9.87;100.00
56912;BME280;42800;53.928;27.662;2023-04-27T10:06:41;98052.41;;;10.02;100.00
56912;BME280;42800;53.928;27.662;2023-04-27T10:09:10;98037.16;;;9.94;100.00
56912;BME280;42800;53.928;27.662;2023-04-27T10:11:37;98030.91;;;10.11;100.00
56912;BME280;42800;53.928;27.662;2023-04-27T10:14:06;98087.97;;;9.95;100.00
56912;BME280;42800;53.928;27.662;2023-04-27T10:16:39;98055.16;;;10.16;100.00
56912;BME280;42800;53.928;27.662;2023-04-27T10:19:08;98146.81;;;10.33;100.00
56912;BME280;42800;53.928;27.662;2023-04-27T10:21:35;98147.88;;;10.10;100.00
56912;BME280;42800;53.928;27.662;2023-04-27T10:24:06;98178.16;;;10.50;100.00
56912;BME280;42800;53.928;27.662;2023-04-27T10:26:33;98190.25;;;10.42;100.00
56912;BME280;42800;53.928;27.662;2023-04-27T10:29:05;98202.88;;;10.71;100.00
56912;BME280;42800;53.928;27.662;2023-04-27T10:31:32;98217.69;;;10.45;100.00
56912;BME280;42800;53.928;27.662;2023-04-27T10:34:05;98213.81;;;10.68;100.00
56912;BME280;42800;53.928;27.662;2023-04-27T10:36:36;98214.16;;;10.48;100.00
56912;BME280;42800;53.928;27.662;2023-04-27T10:39:11;98200.13;;;10.75;100.00
56912;BME280;42800;53.928;27.662;2023-04-27T10:41:38;98277.91;;;10.31;100.00
56912;BME280;42800;53.928;27.662;2023-04-27T10:44:15;98222.47;;;10.80;100.00
56912;BME280;42800;53.928;27.662;2023-04-27T10:46:51;98253.81;;;10.87;100.00
56912;BME280;42800;53.928;27.662;2023-04-27T10:49:17;98284.69;;;10.69;100.00
56912;BME280;42800;53.928;27.662;2023-04-27T10:51:43;98277.66;;;10.72;100.00
56912;BME280;42800;53.928;27.662;2023-04-27T10:54:10;98301.22;;;10.91;100.00
56912;BME280;42800;53.928;27.662;2023-04-27T10:56:36;98329.84;;;10.97;100.00
56912;BME280;42800;53.928;27.662;2023-04-27T10:59:03;98346.34;;;11.22;100.00
56912;BME280;42800;53.928;27.662;2023-04-27T11:01:30;98314.19;;;11.08;100.00
56912;BME280;42800;53.928;27.662;2023-04-27T11:03:57;98299.75;;;11.50;100.00
56912;BME280;42800;53.928;27.662;2023-04-27T11:06:23;98350.72;;;11.48;100.00
56912;BME280;42800;53.928;27.662;2023-04-27T11:08:49;98365.97;;;11.42;100.00
56912;BME280;42800;53.928;27.662;2023-04-27T11:11:15;98379.22;;;11.04;100.00
56912;BME280;42800;53.928;27.662;2023-04-27T11:13:43;98381.66;;;11.27;100.00
56912;BME280;42800;53.928;27.662;2023-04-27T11:16:09;98375.25;;;10.91;100.00
56912;BME280;42800;53.928;27.662;2023-04-27T11:18:36;98359.25;;;11.07;100.00
56912;BME280;42800;53.928;27.662;2023-04-27T11:21:07;98389.75;;;10.88;100.00
56912;BME280;42800;53.928;27.662;2023-04-27T11:23:34;98384.59;;;10.75;100.00
56912;BME280;42800;53.928;27.662;2023-04-27T11:26:08;98391.47;;;10.41;100.00
56912;BME280;42800;53.928;27.662;2023-04-27T11:28:34;98353.44;;;10.35;100.00
56912;BME280;42800;53.928;27.662;2023-04-27T11:31:00;98325.44;;;10.74;100.00
56912;BME280;42800;53.928;27.662;2023-04-27T11:33:27;98356.84;;;10.91;100.00
56912;BME280;42800;53.928;27.662;2023-04-27T11:35:54;98342.84;;;11.39;100.00
56912;BME280;42800;53.928;27.662;2023-04-27T11:38:20;98306.41;;;11.67;100.00
56912;BME280;42800;53.928;27.662;2023-04-27T11:40:58;98339.34;;;11.60;100.00
56912;BME280;42800;53.928;27.662;2023-04-27T11:43:25;98386.72;;;11.28;100.00
56912;BME280;42800;53.928;27.662;2023-04-27T11:45:51;98377.75;;;11.49;100.00
56912;BME280;42800;53.928;27.662;2023-04-27T11:48:18;98370.69;;;11.52;100.00
56912;BME280;42800;53.928;27.662;2023-04-27T11:50:45;98377.63;;;10.96;100.00
56912;BME280;42800;53.928;27.662;2023-04-27T11:53:13;98363.91;;;10.99;100.00
56912;BME280;42800;53.928;27.662;2023-04-27T11:55:39;98377.38;;;11.47;100.00
56912;BME280;42800;53.928;27.662;2023-04-27T11:58:06;98366.69;;;11.03;100.00
56912;BME280;42800;53.928;27.662;2023-04-27T12:00:37;98418.56;;;11.58;100.00
56912;BME280;42800;53.928;27.662;2023-04-27T12:03:03;98437.63;;;11.12;100.00
56912;BME280;42800;53.928;27.662;2023-04-27T12:05:29;98450.53;;;11.04;100.00
56912;BME280;42800;53.928;27.662;2023-04-27T12:07:55;98448.53;;;10.90;100.00
56912;BME280;42800;53.928;27.662;2023-04-27T12:10:22;98453.31;;;11.11;100.00
56912;BME280;42800;53.928;27.662;2023-04-27T12:12:48;98448.03;;;10.74;100.00
56912;BME280;42800;53.928;27.662;2023-04-27T12:15:14;98423.00;;;10.79;100.00
56912;BME280;42800;53.928;27.662;2023-04-27T12:17:39;98441.53;;;11.03;100.00
56912;BME280;42800;53.928;27.662;2023-04-27T12:20:06;98456.16;;;10.59;100.00
56912;BME280;42800;53.928;27.662;2023-04-27T12:22:33;98457.91;;;10.89;100.00
56912;BME280;42800;53.928;27.662;2023-04-27T12:24:59;98460.31;;;11.01;100.00
56912;BME280;42800;53.928;27.662;2023-04-27T12:27:26;98477.72;;;10.61;100.00
56912;BME280;42800;53.928;27.662;2023-04-27T12:29:52;98485.19;;;10.68;100.00
56912;BME280;42800;53.928;27.662;2023-04-27T12:32:18;98502.16;;;10.84;100.00
56912;BME280;42800;53.928;27.662;2023-04-27T12:34:45;98506.94;;;10.98;100.00
56912;BME280;42800;53.928;27.662;2023-04-27T12:37:11;98507.97;;;10.79;100.00
56912;BME280;42800;53.928;27.662;2023-04-27T12:39:37;98502.41;;;10.65;100.00
56912;BME280;42800;53.928;27.662;2023-04-27T12:42:03;98501.41;;;10.94;100.00
56912;BME280;42800;53.928;27.662;2023-04-27T12:44:30;98494.50;;;11.22;100.00
56912;BME280;42800;53.928;27.662;2023-04-27T12:46:56;98489.06;;;11.32;100.00
56912;BME280;42800;53.928;27.662;2023-04-27T12:49:22;98487.50;;;11.35;100.00